createdAt,value
2023-02-07T00:01:35.393Z,75.98
2023-02-07T00:04:03.693Z,75.93
2023-02-07T00:06:35.860Z,75.84
2023-02-07T00:09:07.424Z,75.68
2023-02-07T00:11:40.783Z,75.61
2023-02-07T00:14:11.903Z,75.81
2023-02-07T00:16:41.113Z,75.89
2023-02-07T00:19:09.453Z,75.90
2023-02-07T00:21:37.688Z,75.98
2023-02-07T00:24:07.729Z,75.73
2023-02-07T00:26:35.863Z,75.82
2023-02-07T00:29:04.793Z,75.68
2023-02-07T00:31:35.670Z,75.28
2023-02-07T00:34:06.475Z,75.21
2023-02-07T00:36:36.654Z,75.24
2023-02-07T00:39:11.476Z,75.31
2023-02-07T00:41:40.562Z,75.60
2023-02-07T00:44:09.404Z,75.55
2023-02-07T00:46:38.929Z,75.73
2023-02-07T00:49:07.651Z,75.98
2023-02-07T00:51:35.667Z,76.27
2023-02-07T00:54:04.513Z,76.50
2023-02-07T00:56:33.741Z,76.75
2023-02-07T00:59:01.704Z,76.82
2023-02-07T01:01:29.674Z,76.60
2023-02-07T01:03:58.318Z,76.71
2023-02-07T01:06:28.211Z,76.53
2023-02-07T01:08:58.490Z,76.46
2023-02-07T01:11:27.557Z,76.41
2023-02-07T01:13:56.447Z,76.32
2023-02-07T01:16:30.470Z,76.46
2023-02-07T01:19:01.415Z,77.03
2023-02-07T01:21:30.390Z,77.27
2023-02-07T01:23:58.407Z,77.43
2023-02-07T01:26:26.991Z,77.46
2023-02-07T01:28:55.635Z,77.32
2023-02-07T01:31:24.392Z,77.24
2023-02-07T01:33:57.987Z,77.23
2023-02-07T01:36:28.417Z,77.20
2023-02-07T01:38:57.556Z,77.19
2023-02-07T01:41:27.811Z,77.04
2023-02-07T01:44:05.885Z,76.78
2023-02-07T01:46:35.849Z,76.54
2023-02-07T01:49:13.387Z,76.46
2023-02-07T01:51:48.861Z,76.24
2023-02-07T01:54:18.787Z,76.46
2023-02-07T01:56:57.244Z,76.39
2023-02-07T01:59:27.040Z,76.44
2023-02-07T02:01:56.460Z,76.33
2023-02-07T02:04:24.527Z,76.17
2023-02-07T02:06:53.412Z,76.06
2023-02-07T02:09:21.597Z,75.86
2023-02-07T02:12:18.571Z,76.24
2023-02-07T02:14:58.605Z,76.20
2023-02-07T02:17:45.419Z,76.17
2023-02-07T02:20:16.639Z,76.32
2023-02-07T02:23:27.316Z,76.36
2023-02-07T02:26:23.275Z,76.40
2023-02-07T02:29:06.793Z,76.57
2023-02-07T02:31:46.843Z,76.58
2023-02-07T02:34:30.121Z,76.46
2023-02-07T02:37:13.075Z,76.39
2023-02-07T02:39:50.219Z,76.43
2023-02-07T02:42:25.556Z,76.42
2023-02-07T02:45:10.973Z,76.33
2023-02-07T02:47:42.062Z,76.21
2023-02-07T02:50:16.176Z,76.07
2023-02-07T02:52:50.751Z,76.15
2023-02-07T02:55:40.298Z,76.26
2023-02-07T02:58:15.521Z,76.02
2023-02-07T03:04:42.890Z,76.33
2023-02-07T03:07:25.089Z,76.16
2023-02-07T03:10:18.050Z,76.41
2023-02-07T03:13:02.251Z,76.32
2023-02-07T03:16:00.750Z,76.32
2023-02-07T03:19:02.089Z,75.81
2023-02-07T03:21:39.134Z,75.37
2023-02-07T03:24:14.494Z,75.48
2023-02-07T03:26:46.133Z,75.78
2023-02-07T03:29:17.905Z,75.59
2023-02-07T03:31:50.180Z,75.68
2023-02-07T03:34:25.775Z,76.00
2023-02-07T03:36:57.775Z,76.20
2023-02-07T03:39:26.702Z,76.14
2023-02-07T03:42:18.058Z,76.15
2023-02-07T03:44:48.927Z,76.23
2023-02-07T03:47:18.352Z,76.03
2023-02-07T03:49:46.390Z,75.94
2023-02-07T03:52:14.369Z,75.74
2023-02-07T03:54:42.417Z,75.52
2023-02-07T03:57:10.641Z,75.71
2023-02-07T03:59:38.751Z,75.71
2023-02-07T04:02:06.901Z,75.89
2023-02-07T04:04:34.959Z,75.87
2023-02-07T04:07:03.128Z,75.99
2023-02-07T04:09:31.221Z,76.14
2023-02-07T04:11:59.709Z,76.29
2023-02-07T04:14:27.794Z,76.32
2023-02-07T04:16:55.774Z,76.13
2023-02-07T04:19:23.793Z,76.00
2023-02-07T04:21:51.874Z,75.94
2023-02-07T04:24:20.005Z,75.80
2023-02-07T04:26:48.076Z,75.68
2023-02-07T04:29:16.250Z,75.48
2023-02-07T04:31:44.270Z,75.34
2023-02-07T04:34:13.194Z,75.24
2023-02-07T04:36:41.222Z,75.29
2023-02-07T04:39:09.394Z,75.07
2023-02-07T04:41:39.996Z,74.98
2023-02-07T04:44:08.118Z,74.66
2023-02-07T04:46:36.428Z,74.69
2023-02-07T04:49:04.440Z,74.70
2023-02-07T04:51:33.271Z,74.74
2023-02-07T04:54:01.392Z,74.64
2023-02-07T04:56:29.435Z,74.61
2023-02-07T04:58:57.723Z,74.79
2023-02-07T05:01:25.908Z,74.87
2023-02-07T05:03:53.936Z,74.74
2023-02-07T05:06:21.914Z,74.81
2023-02-07T05:08:49.905Z,74.96
2023-02-07T05:11:18.563Z,75.07
2023-02-07T05:13:46.601Z,74.94
2023-02-07T05:16:14.656Z,74.51
2023-02-07T05:18:42.976Z,74.30
2023-02-07T05:21:11.629Z,74.57
2023-02-07T05:23:39.799Z,74.51
2023-02-07T05:26:07.879Z,74.29
2023-02-07T05:28:35.836Z,74.33
2023-02-07T05:31:03.949Z,74.41
2023-02-07T05:33:31.999Z,74.52
2023-02-07T05:36:03.039Z,74.18
2023-02-07T05:38:31.498Z,74.13
2023-02-07T05:41:00.141Z,74.02
2023-02-07T05:43:28.142Z,73.95
2023-02-07T05:45:56.116Z,73.83
2023-02-07T05:48:24.510Z,73.56
2023-02-07T05:50:52.539Z,73.63
2023-02-07T05:53:20.599Z,73.41
2023-02-07T05:55:52.631Z,73.28
2023-02-07T05:58:20.670Z,73.16
2023-02-07T06:00:49.037Z,73.17
2023-02-07T06:03:17.085Z,73.28
2023-02-07T06:05:45.442Z,73.20
2023-02-07T06:08:13.644Z,73.37
2023-02-07T06:10:41.783Z,73.25
2023-02-07T06:13:09.875Z,73.06
2023-02-07T06:15:38.226Z,73.29
2023-02-07T06:18:06.650Z,73.37
2023-02-07T06:20:34.784Z,73.50
2023-02-07T06:23:02.798Z,73.85
2023-02-07T06:25:31.068Z,73.90
2023-02-07T06:27:59.380Z,73.87
2023-02-07T06:30:27.968Z,73.91
2023-02-07T06:32:56.039Z,73.87
2023-02-07T06:35:24.161Z,73.75
2023-02-07T06:37:54.936Z,73.62
2023-02-07T06:40:23.930Z,73.87
2023-02-07T06:42:52.032Z,73.81
2023-02-07T06:45:20.216Z,73.22
2023-02-07T06:47:48.317Z,72.72
2023-02-07T06:50:16.346Z,72.43
2023-02-07T06:52:44.861Z,72.19
2023-02-07T06:55:12.838Z,72.28
2023-02-07T06:57:40.812Z,72.33
2023-02-07T07:00:09.473Z,72.49
2023-02-07T07:02:37.757Z,72.35
2023-02-07T07:05:06.515Z,72.58
2023-02-07T07:07:34.463Z,72.06
2023-02-07T07:10:02.442Z,71.73
2023-02-07T07:12:30.379Z,71.36
2023-02-07T07:14:58.373Z,70.54
2023-02-07T07:17:26.516Z,69.25
2023-02-07T07:19:54.689Z,68.98
2023-02-07T07:22:22.968Z,69.78
2023-02-07T07:24:50.921Z,70.43
2023-02-07T07:27:19.338Z,70.82
2023-02-07T07:29:47.445Z,70.90
2023-02-07T07:32:28.687Z,71.08
2023-02-07T07:35:00.380Z,70.87
2023-02-07T07:37:28.528Z,70.42
2023-02-07T07:39:56.659Z,69.79
2023-02-07T07:42:24.583Z,69.21
2023-02-07T07:45:10.147Z,68.95
2023-02-07T07:47:38.252Z,68.71
2023-02-07T07:50:07.851Z,68.84
2023-02-07T07:52:35.988Z,68.77
2023-02-07T07:55:04.278Z,68.20
2023-02-07T07:57:32.363Z,68.42
2023-02-07T08:00:00.416Z,67.96
2023-02-07T08:02:28.546Z,67.58
2023-02-07T08:04:56.541Z,67.79
2023-02-07T08:07:24.572Z,68.11
2023-02-07T08:09:52.599Z,68.04
2023-02-07T08:12:20.628Z,68.43
2023-02-07T08:14:48.539Z,68.50
2023-02-07T08:17:16.594Z,68.68
2023-02-07T08:19:44.579Z,69.14
2023-02-07T08:22:14.441Z,69.21
2023-02-07T08:24:42.367Z,69.23
2023-02-07T08:27:10.350Z,69.65
2023-02-07T08:29:38.326Z,70.02
2023-02-07T08:32:06.405Z,69.95
2023-02-07T08:34:37.684Z,69.72
2023-02-07T08:37:09.546Z,69.87
2023-02-07T08:39:37.496Z,69.70
2023-02-07T08:42:08.289Z,69.62
2023-02-07T08:44:37.381Z,69.32
2023-02-07T08:47:05.463Z,69.50
2023-02-07T08:49:33.560Z,69.43
2023-02-07T08:52:01.656Z,69.09
2023-02-07T08:54:29.600Z,68.72
2023-02-07T08:56:57.590Z,68.46
2023-02-07T08:59:25.628Z,67.73
2023-02-07T09:01:53.679Z,67.90
2023-02-07T09:04:22.264Z,68.18
2023-02-07T09:06:50.302Z,68.17
2023-02-07T09:09:18.826Z,67.83
2023-02-07T09:11:46.928Z,67.79
2023-02-07T09:14:14.939Z,67.10
2023-02-07T09:16:42.854Z,66.15
2023-02-07T09:19:11.065Z,66.45
2023-02-07T09:21:39.029Z,66.69
2023-02-07T09:24:07.054Z,67.12
2023-02-07T09:26:35.958Z,66.91
2023-02-07T09:29:04.070Z,66.55
2023-02-07T09:31:34.247Z,66.01
2023-02-07T09:34:03.092Z,65.48
2023-02-07T09:36:32.109Z,65.59
2023-02-07T09:39:00.662Z,66.04
2023-02-07T09:41:44.747Z,65.84
2023-02-07T09:44:25.998Z,65.88
2023-02-07T09:47:06.070Z,65.43
2023-02-07T09:49:39.142Z,64.06
2023-02-07T09:52:14.526Z,63.47
2023-02-07T09:54:46.757Z,63.80
2023-02-07T09:57:21.183Z,61.87
2023-02-07T09:59:52.343Z,60.85
2023-02-07T10:02:36.252Z,61.30
2023-02-07T10:05:30.203Z,60.44
2023-02-07T10:07:58.204Z,59.11
2023-02-07T10:10:37.787Z,58.64
2023-02-07T10:13:42.557Z,59.52
2023-02-07T10:16:33.805Z,59.00
2023-02-07T10:19:16.744Z,59.91
2023-02-07T10:22:08.365Z,58.52
2023-02-07T10:25:05.452Z,58.46
2023-02-07T10:27:53.961Z,57.46
2023-02-07T10:30:30.589Z,56.82
2023-02-07T10:33:02.659Z,56.91
2023-02-07T10:35:38.523Z,56.21
2023-02-07T10:38:25.067Z,54.30
2023-02-07T10:41:00.066Z,52.89
2023-02-07T10:43:30.597Z,51.95
2023-02-07T10:46:09.153Z,51.66
2023-02-07T10:48:38.060Z,53.36
2023-02-07T10:51:37.326Z,52.50
2023-02-07T10:54:20.250Z,53.86
2023-02-07T10:57:17.534Z,54.47
2023-02-07T10:59:46.149Z,54.74
2023-02-07T11:02:31.928Z,54.04
2023-02-07T11:05:03.098Z,52.14
2023-02-07T11:07:42.647Z,51.24
2023-02-07T11:10:21.933Z,50.79
2023-02-07T11:12:55.694Z,51.82
2023-02-07T11:15:36.908Z,53.51
2023-02-07T11:18:06.362Z,54.74
2023-02-07T11:20:36.132Z,52.17
2023-02-07T11:23:11.846Z,51.33
2023-02-07T11:25:44.131Z,51.63
2023-02-07T11:28:32.854Z,51.63
2023-02-07T11:31:10.393Z,53.10
2023-02-07T11:33:38.685Z,51.64
2023-02-07T11:36:20.248Z,51.62
2023-02-07T11:38:51.120Z,52.88
2023-02-07T11:41:33.747Z,53.02
2023-02-07T11:44:15.125Z,51.93
2023-02-07T11:46:47.912Z,51.50
2023-02-07T11:49:45.782Z,50.73
2023-02-07T11:52:14.314Z,52.24
2023-02-07T11:54:50.093Z,50.57
2023-02-07T11:57:20.351Z,51.06
2023-02-07T12:00:25.577Z,52.23
2023-02-07T12:03:27.808Z,51.78
2023-02-07T12:06:00.625Z,52.79
2023-02-07T12:08:33.579Z,51.55
2023-02-07T12:11:14.086Z,50.65
2023-02-07T12:13:51.554Z,51.67
2023-02-07T12:16:54.944Z,51.63
2023-02-07T12:19:33.353Z,52.08
2023-02-07T12:22:22.108Z,52.39
2023-02-07T12:24:55.025Z,52.05
2023-02-07T12:27:30.510Z,52.24
2023-02-07T12:30:24.957Z,52.47
2023-02-07T12:33:05.325Z,51.71
2023-02-07T12:35:59.040Z,52.25
2023-02-07T12:38:34.971Z,51.81
2023-02-07T12:41:17.156Z,52.64
2023-02-07T12:43:58.749Z,53.49
2023-02-07T12:46:58.169Z,52.42
2023-02-07T12:50:00.313Z,50.96
2023-02-07T12:52:47.772Z,50.90
2023-02-07T12:55:34.434Z,51.88
2023-02-07T12:58:17.676Z,53.08
2023-02-07T13:01:09.335Z,51.93
2023-02-07T13:04:08.668Z,52.02
2023-02-07T13:06:49.414Z,52.46
2023-02-07T13:10:00.531Z,50.70
2023-02-07T13:12:51.364Z,50.93
2023-02-07T13:15:27.066Z,50.95
2023-02-07T13:18:05.585Z,49.96
2023-02-07T13:20:33.643Z,49.86
2023-02-07T13:23:09.768Z,48.34
2023-02-07T13:25:44.594Z,47.58
2023-02-07T13:28:26.494Z,48.23
2023-02-07T13:30:57.444Z,47.12
2023-02-07T13:33:36.674Z,47.06
2023-02-07T13:36:27.604Z,48.19
2023-02-07T13:39:01.671Z,48.11
2023-02-07T13:42:11.145Z,47.80
2023-02-07T13:44:57.835Z,47.66
2023-02-07T13:47:58.066Z,47.41
2023-02-07T13:50:47.037Z,47.98
2023-02-07T13:53:25.095Z,47.84
2023-02-07T13:55:53.086Z,48.03
2023-02-07T13:58:51.752Z,48.19
2023-02-07T14:01:31.620Z,48.26
2023-02-07T14:04:02.505Z,48.10
2023-02-07T14:06:35.308Z,47.48
2023-02-07T14:09:17.820Z,48.12
2023-02-07T14:11:57.000Z,48.30
2023-02-07T14:14:30.968Z,48.24
2023-02-07T14:17:02.202Z,48.83
2023-02-07T14:19:39.373Z,48.53
2023-02-07T14:22:29.074Z,49.24
2023-02-07T14:24:59.968Z,49.52
2023-02-07T14:27:32.239Z,49.23
2023-02-07T14:30:00.402Z,50.27
2023-02-07T14:32:39.945Z,51.47
2023-02-07T14:35:17.097Z,51.67
2023-02-07T14:37:58.546Z,51.62
2023-02-07T14:41:09.425Z,52.28
2023-02-07T14:43:50.542Z,52.41
2023-02-07T14:46:47.761Z,53.18
2023-02-07T14:49:21.450Z,53.62
2023-02-07T14:52:08.917Z,54.26
2023-02-07T14:54:58.935Z,54.95
2023-02-07T14:57:37.278Z,55.27
2023-02-07T15:00:28.834Z,55.73
2023-02-07T15:03:07.007Z,56.26
2023-02-07T15:05:38.554Z,56.65
2023-02-07T15:08:20.271Z,57.00
2023-02-07T15:10:59.566Z,57.23
2023-02-07T15:13:32.814Z,57.42
2023-02-07T15:16:08.847Z,57.76
2023-02-07T15:19:12.784Z,58.19
2023-02-07T15:21:46.203Z,58.40
2023-02-07T15:24:26.852Z,58.71
2023-02-07T15:26:58.459Z,58.98
2023-02-07T15:29:30.745Z,59.03
2023-02-07T15:31:58.933Z,59.33
2023-02-07T15:34:32.089Z,59.31
2023-02-07T15:37:12.600Z,59.26
2023-02-07T15:39:40.671Z,59.04
2023-02-07T15:42:18.411Z,59.07
2023-02-07T15:44:55.188Z,59.21
2023-02-07T15:47:29.279Z,59.33
2023-02-07T15:50:08.997Z,59.56
2023-02-07T15:52:46.378Z,59.77
2023-02-07T15:55:32.486Z,59.85
2023-02-07T15:58:02.013Z,59.87
2023-02-07T16:00:40.141Z,59.93
2023-02-07T16:03:23.192Z,60.14
2023-02-07T16:06:02.455Z,60.26
2023-02-07T16:08:39.870Z,60.39
2023-02-07T16:11:16.329Z,60.61
2023-02-07T16:14:10.821Z,60.90
2023-02-07T16:16:46.720Z,61.03
2023-02-07T16:19:14.632Z,61.27
2023-02-07T16:21:50.341Z,61.36
2023-02-07T16:24:22.124Z,61.34
2023-02-07T16:26:50.964Z,61.49
2023-02-07T16:29:26.159Z,61.71
2023-02-07T16:31:55.795Z,61.73
2023-02-07T16:34:24.171Z,62.07
2023-02-07T16:36:55.251Z,62.40
2023-02-07T16:39:23.468Z,62.63
2023-02-07T16:41:55.772Z,63.01
2023-02-07T16:44:26.056Z,63.19
2023-02-07T16:46:54.161Z,63.36
2023-02-07T16:49:24.620Z,63.59
2023-02-07T16:51:53.270Z,63.81
2023-02-07T16:54:21.458Z,64.02
2023-02-07T16:56:54.228Z,64.24
2023-02-07T16:59:23.238Z,64.42
2023-02-07T17:01:53.079Z,64.18
2023-02-07T17:04:22.141Z,64.47
2023-02-07T17:06:50.284Z,64.68
2023-02-07T17:09:18.157Z,64.55
2023-02-07T17:11:47.072Z,64.41
2023-02-07T17:14:15.182Z,64.54
2023-02-07T17:16:43.341Z,64.43
2023-02-07T17:19:27.144Z,64.58
2023-02-07T17:21:56.732Z,64.54
2023-02-07T17:24:24.639Z,64.52
2023-02-07T17:26:54.454Z,64.56
2023-02-07T17:29:22.831Z,64.38
2023-02-07T17:31:51.593Z,64.49
2023-02-07T17:34:19.899Z,64.70
2023-02-07T17:36:49.894Z,64.82
2023-02-07T17:39:19.768Z,64.84
2023-02-07T17:41:48.565Z,64.92
2023-02-07T17:44:21.605Z,65.15
2023-02-07T17:46:49.852Z,65.13
2023-02-07T17:49:17.842Z,65.05
2023-02-07T17:51:45.946Z,65.23
2023-02-07T17:54:14.255Z,65.06
2023-02-07T17:56:42.272Z,65.00
2023-02-07T17:59:19.000Z,65.11
2023-02-07T18:01:47.014Z,65.08
2023-02-07T18:04:15.300Z,65.12
2023-02-07T18:06:43.191Z,65.11
2023-02-07T18:09:19.538Z,65.13
2023-02-07T18:11:47.685Z,65.22
2023-02-07T18:14:15.616Z,65.37
2023-02-07T18:16:43.691Z,65.47
2023-02-07T18:19:16.453Z,65.44
2023-02-07T18:21:45.037Z,65.40
2023-02-07T18:24:13.471Z,65.42
2023-02-07T18:26:41.641Z,65.38
2023-02-07T18:29:09.681Z,65.51
2023-02-07T18:31:38.843Z,65.27
2023-02-07T18:34:07.058Z,65.21
2023-02-07T18:36:40.606Z,65.21
2023-02-07T18:39:12.442Z,65.21
2023-02-07T18:41:40.748Z,65.26
2023-02-07T18:44:09.079Z,65.32
2023-02-07T18:46:37.937Z,65.26
2023-02-07T18:49:06.604Z,65.36
2023-02-07T18:51:34.972Z,65.40
2023-02-07T18:54:03.387Z,65.42
2023-02-07T18:56:31.429Z,65.51
2023-02-07T18:58:59.629Z,65.66
2023-02-07T19:01:30.655Z,65.51
2023-02-07T19:04:01.603Z,65.40
2023-02-07T19:06:32.505Z,65.30
2023-02-07T19:09:00.644Z,65.32
2023-02-07T19:11:28.692Z,65.60
2023-02-07T19:13:56.766Z,65.80
2023-02-07T19:16:25.039Z,65.77
2023-02-07T19:18:53.202Z,65.72
2023-02-07T19:21:27.196Z,65.88
2023-02-07T19:23:57.117Z,65.95
2023-02-07T19:26:25.608Z,66.02
2023-02-07T19:28:54.046Z,66.18
2023-02-07T19:31:22.725Z,66.16
2023-02-07T19:33:52.039Z,66.17
2023-02-07T19:36:23.275Z,66.39
2023-02-07T19:38:54.276Z,66.62
2023-02-07T19:41:24.053Z,66.67
2023-02-07T19:43:52.738Z,66.77
2023-02-07T19:46:21.971Z,66.62
2023-02-07T19:48:50.385Z,66.79
2023-02-07T19:51:22.137Z,66.74
2023-02-07T19:53:51.373Z,66.94
2023-02-07T19:56:21.079Z,67.00
2023-02-07T19:58:52.000Z,67.25
2023-02-07T20:01:21.338Z,67.17
2023-02-07T20:03:53.243Z,67.51
2023-02-07T20:06:24.785Z,67.54
2023-02-07T20:08:52.743Z,67.73
2023-02-07T20:11:21.566Z,67.76
2023-02-07T20:13:52.767Z,68.09
2023-02-07T20:16:25.211Z,68.04
2023-02-07T20:18:53.861Z,68.29
2023-02-07T20:21:25.346Z,68.30
2023-02-07T20:23:55.608Z,68.35
2023-02-07T20:26:31.522Z,68.21
2023-02-07T20:29:05.782Z,68.45
2023-02-07T20:31:33.998Z,68.46
2023-02-07T20:34:03.651Z,68.50
2023-02-07T20:36:33.804Z,68.60
2023-02-07T20:39:02.211Z,68.63
2023-02-07T20:41:30.332Z,68.70
2023-02-07T20:44:03.716Z,68.72
2023-02-07T20:46:36.672Z,68.83
2023-02-07T20:49:16.777Z,69.05
2023-02-07T20:51:48.678Z,69.15
2023-02-07T20:54:19.112Z,69.00
2023-02-07T20:56:47.580Z,69.04
2023-02-07T20:59:25.861Z,69.31
2023-02-07T21:01:55.457Z,69.35
2023-02-07T21:04:24.299Z,69.28
2023-02-07T21:06:52.964Z,69.27
2023-02-07T21:09:24.105Z,69.38
2023-02-07T21:11:55.054Z,69.65
2023-02-07T21:14:31.349Z,69.61
2023-02-07T21:17:02.565Z,69.54
2023-02-07T21:19:30.550Z,69.48
2023-02-07T21:21:59.035Z,69.50
2023-02-07T21:24:27.175Z,69.62
2023-02-07T21:26:56.440Z,69.60
2023-02-07T21:29:26.028Z,69.61
2023-02-07T21:31:54.163Z,69.60
2023-02-07T21:34:24.005Z,69.64
2023-02-07T21:36:52.567Z,69.66
2023-02-07T21:39:21.928Z,69.67
2023-02-07T21:41:50.477Z,69.55
2023-02-07T21:44:21.454Z,69.64
2023-02-07T21:46:51.390Z,69.77
2023-02-07T21:49:20.898Z,69.90
2023-02-07T21:51:50.266Z,69.73
2023-02-07T21:54:18.531Z,69.90
2023-02-07T21:56:49.674Z,69.98
2023-02-07T21:59:19.860Z,69.72
2023-02-07T22:01:48.508Z,69.51
2023-02-07T22:04:17.938Z,69.58
2023-02-07T22:06:48.028Z,69.58
2023-02-07T22:09:18.717Z,69.59
2023-02-07T22:11:47.010Z,69.75
2023-02-07T22:14:16.199Z,69.60
2023-02-07T22:16:44.656Z,69.68
2023-02-07T22:19:14.210Z,69.83
2023-02-07T22:21:42.134Z,69.95
2023-02-07T22:24:12.988Z,70.12
2023-02-07T22:26:41.943Z,70.19
2023-02-07T22:29:10.229Z,69.97
2023-02-07T22:31:40.183Z,70.19
2023-02-07T22:34:10.881Z,70.33
2023-02-07T22:36:43.162Z,70.59
2023-02-07T22:39:13.431Z,70.32
2023-02-07T22:41:41.641Z,70.14
2023-02-07T22:44:10.546Z,70.20
2023-02-07T22:46:39.271Z,70.19
2023-02-07T22:49:07.378Z,70.51
2023-02-07T22:51:37.264Z,70.51
2023-02-07T22:54:08.340Z,70.72
2023-02-07T22:56:37.803Z,70.90
2023-02-07T22:59:06.587Z,70.80
2023-02-07T23:01:38.983Z,70.90
2023-02-07T23:04:13.020Z,70.98
2023-02-07T23:06:41.792Z,70.82
2023-02-07T23:09:10.228Z,70.63
2023-02-07T23:11:38.328Z,70.84
2023-02-07T23:14:07.015Z,70.88
2023-02-07T23:16:36.234Z,70.59
2023-02-07T23:19:08.594Z,70.69
2023-02-07T23:21:36.690Z,70.80
2023-02-07T23:24:04.801Z,70.84
2023-02-07T23:26:33.397Z,70.81
2023-02-07T23:29:01.411Z,70.81
2023-02-07T23:31:29.660Z,71.00
2023-02-07T23:33:57.829Z,71.10
2023-02-07T23:36:27.215Z,71.07
2023-02-07T23:38:55.237Z,71.09
2023-02-07T23:41:23.221Z,71.25
2023-02-07T23:43:51.322Z,71.27
2023-02-07T23:46:19.907Z,71.39
2023-02-07T23:48:47.839Z,71.31
2023-02-07T23:51:16.601Z,71.62
2023-02-07T23:53:44.708Z,71.63
2023-02-07T23:56:21.765Z,71.92
2023-02-07T23:58:51.415Z,71.95
